»·PEaware :: XRO525 KTMK-S59

XRO525 :: KTMK-S59

FLIGHT INFORMATION

Flight Status: Arrived
Operator: Unknown
More flights by this operator :: More flights under this callsign
Pilot: Kim B. (19519)
Aircraft: SOCATA TBM-900
(TBM9)
More flights by this aircraft type
Origin: KTMK Tillamook
United States
Destination: S59 Libby
United States
More flights between these airports :: More routes between these airports
Route: BTG J136 HILIE CLASS
File this flight plan on PilotEdge
Remarks:
Altitude:
(Current/Filed)
27,000ft
Speed:
(Current/Filed)
280kts
Departed: 04-Nov-18 06:12 PM
Arrived: 04-Nov-18 08:04 PM
Distance/Time
Traveled:
382nm/1:52
Distance/Time
To Go:
Arrived

Flight Plot

Page will automatically refresh every two minutes.

Flight plan parsing failed; only flown route is shown


Map Options




Map Legend


Flown Route
Filed Route
Departure Airport
Arrival Airport
Navaid (VOR, NDB)
Fix

Horizontal Profiles

Position Reports

Time Latitude Longitude Heading Altitude Ground
Speed
04-Nov-18 18:00 45.418644 -123.818684 70 26ft 0kts
04-Nov-18 18:01 45.418644 -123.818684 70 26ft 0kts
04-Nov-18 18:02 45.418644 -123.818684 70 26ft 0kts
04-Nov-18 18:03 45.418644 -123.818684 70 26ft 0kts
04-Nov-18 18:04 45.418644 -123.818684 70 26ft 0kts
04-Nov-18 18:05 45.418644 -123.818684 70 26ft 0kts
04-Nov-18 18:06 45.418644 -123.818684 70 26ft 0kts
04-Nov-18 18:07 45.418644 -123.818684 70 26ft 0kts
04-Nov-18 18:08 45.418644 -123.818684 70 26ft 0kts
04-Nov-18 18:09 45.418644 -123.818684 70 26ft 0kts
04-Nov-18 18:10 45.418644 -123.818684 70 26ft 0kts
04-Nov-18 18:11 45.418672 -123.818572 70 26ft 6kts
04-Nov-18 18:12 45.422403 -123.819051 334 28ft 27kts
04-Nov-18 18:14 45.424160 -123.818901 135 28ft 10kts
04-Nov-18 18:15 45.422584 -123.817836 156 29ft 69kts
04-Nov-18 18:16 45.406197 -123.788810 69 1550ft 144kts
04-Nov-18 18:17 45.431291 -123.754600 50 3302ft 154kts
04-Nov-18 18:18 45.446497 -123.711210 63 4939ft 159kts
04-Nov-18 18:19 45.460131 -123.662256 62 6737ft 162kts
04-Nov-18 18:20 45.472487 -123.617297 61 8214ft 166kts
04-Nov-18 18:21 45.485966 -123.568155 61 9573ft 176kts
04-Nov-18 18:22 45.501550 -123.511216 61 11375ft 193kts
04-Nov-18 18:23 45.517876 -123.451168 59 13418ft 199kts
04-Nov-18 18:24 45.534844 -123.388783 57 15189ft 209kts
04-Nov-18 18:25 45.551591 -123.327067 56 16692ft 218kts
04-Nov-18 18:26 45.570516 -123.257102 54 18166ft 226kts
04-Nov-18 18:26 45.586718 -123.197076 53 19289ft 233kts
04-Nov-18 18:28 45.609729 -123.111300 50 21230ft 242kts
04-Nov-18 18:29 45.630878 -123.032509 49 22786ft 255kts
04-Nov-18 18:30 45.652605 -122.951339 48 24008ft 269kts
04-Nov-18 18:30 45.671234 -122.880979 46 25116ft 266kts
04-Nov-18 18:31 45.692861 -122.799755 44 26409ft 271kts
04-Nov-18 18:32 45.714747 -122.717671 46 27179ft 295kts
04-Nov-18 18:33 45.739227 -122.624801 49 27165ft 332kts
04-Nov-18 18:34 45.770128 -122.535537 39 27169ft 326kts
04-Nov-18 18:35 45.800034 -122.460166 39 27163ft 331kts
04-Nov-18 18:36 45.835701 -122.369967 39 27165ft 334kts
04-Nov-18 18:37 45.871002 -122.280497 40 27144ft 335kts
04-Nov-18 18:38 45.905914 -122.191701 40 27151ft 334kts
04-Nov-18 18:39 45.940535 -122.103365 40 27142ft 335kts
04-Nov-18 18:40 45.972736 -122.020937 40 27149ft 334kts
04-Nov-18 18:41 46.002444 -121.944721 40 27143ft 335kts
04-Nov-18 18:43 46.025467 -121.885471 40 27143ft 334kts
04-Nov-18 18:44 46.058810 -121.799302 40 27099ft 329kts
04-Nov-18 18:45 46.089879 -121.718802 38 27063ft 306kts
04-Nov-18 18:46 46.118830 -121.643826 37 27066ft 300kts
04-Nov-18 18:47 46.147937 -121.568214 38 27071ft 305kts
04-Nov-18 18:48 46.182286 -121.478477 38 27071ft 307kts
04-Nov-18 18:49 46.217516 -121.386329 39 27079ft 317kts
04-Nov-18 18:50 46.252196 -121.295127 40 27054ft 325kts
04-Nov-18 18:51 46.289832 -121.195882 40 27041ft 328kts
04-Nov-18 18:52 46.329477 -121.090919 41 26998ft 329kts
04-Nov-18 18:53 46.367747 -120.989207 42 26981ft 326kts
04-Nov-18 18:54 46.406164 -120.886693 42 26973ft 323kts
04-Nov-18 18:55 46.443951 -120.785528 42 26976ft 322kts
04-Nov-18 18:56 46.481412 -120.684862 41 26977ft 322kts
04-Nov-18 18:57 46.519489 -120.582165 42 26977ft 322kts
04-Nov-18 18:58 46.557437 -120.479334 41 26977ft 317kts
04-Nov-18 18:59 46.588101 -120.396553 41 26972ft 312kts
04-Nov-18 19:00 46.615943 -120.321495 41 26964ft 311kts
04-Nov-18 19:01 46.645537 -120.241481 41 26966ft 309kts
04-Nov-18 19:02 46.675886 -120.159193 41 26965ft 308kts
04-Nov-18 19:03 46.709996 -120.066370 41 26968ft 308kts
04-Nov-18 19:04 46.746137 -119.967672 41 26968ft 308kts
04-Nov-18 19:05 46.783108 -119.866351 41 26964ft 309kts
04-Nov-18 19:06 46.821075 -119.762055 42 26960ft 324kts
04-Nov-18 19:07 46.859920 -119.654629 43 26940ft 333kts
04-Nov-18 19:08 46.899339 -119.545322 43 26927ft 336kts
04-Nov-18 19:09 46.938690 -119.435719 45 26928ft 337kts
04-Nov-18 19:10 46.977776 -119.326419 47 26916ft 337kts
04-Nov-18 19:11 47.016801 -119.216801 48 26917ft 335kts
04-Nov-18 19:12 47.055488 -119.107633 48 26918ft 334kts
04-Nov-18 19:13 47.094259 -118.997876 49 26920ft 334kts
04-Nov-18 19:14 47.133860 -118.885301 50 26932ft 334kts
04-Nov-18 19:15 47.173371 -118.772416 51 26932ft 332kts
04-Nov-18 19:16 47.213557 -118.656890 50 26946ft 332kts
04-Nov-18 19:17 47.249541 -118.553454 50 26952ft 333kts
04-Nov-18 19:18 47.285179 -118.450399 50 26929ft 334kts
04-Nov-18 19:19 47.319459 -118.350896 50 26836ft 337kts
04-Nov-18 19:20 47.353605 -118.251471 51 26213ft 348kts
04-Nov-18 19:21 47.391409 -118.140823 52 25532ft 352kts
04-Nov-18 19:22 47.424458 -118.043719 52 24935ft 352kts
04-Nov-18 19:23 47.457047 -117.947615 52 24347ft 350kts
04-Nov-18 19:24 47.488438 -117.854701 53 23761ft 343kts
04-Nov-18 19:25 47.518720 -117.764722 52 23102ft 328kts
04-Nov-18 19:26 47.547398 -117.679184 52 22876ft 309kts
04-Nov-18 19:27 47.562901 -117.586689 85 22896ft 332kts
04-Nov-18 19:28 47.558130 -117.480042 86 22883ft 343kts
04-Nov-18 19:29 47.553327 -117.379041 86 22878ft 346kts
04-Nov-18 19:30 47.548408 -117.277576 87 22869ft 347kts
04-Nov-18 19:31 47.543256 -117.173235 87 22870ft 347kts
04-Nov-18 19:32 47.538004 -117.068647 87 22247ft 328kts
04-Nov-18 19:33 47.533145 -116.973274 88 21494ft 314kts
04-Nov-18 19:34 47.528187 -116.877757 89 20736ft 307kts
04-Nov-18 19:35 47.523148 -116.782808 89 19982ft 303kts
04-Nov-18 19:36 47.523098 -116.691448 55 19207ft 284kts
04-Nov-18 19:37 47.556413 -116.629918 37 18549ft 267kts
04-Nov-18 19:38 47.592243 -116.572657 36 17824ft 257kts
04-Nov-18 19:39 47.627011 -116.517399 36 17111ft 253kts
04-Nov-18 19:40 47.661062 -116.463185 37 16411ft 252kts
04-Nov-18 19:41 47.694730 -116.409471 37 15717ft 251kts
04-Nov-18 19:42 47.727534 -116.357030 37 15039ft 250kts
04-Nov-18 19:43 47.757014 -116.309814 38 14409ft 250kts
04-Nov-18 19:44 47.787023 -116.261656 39 13782ft 249kts
04-Nov-18 19:45 47.817977 -116.211894 39 13306ft 249kts
04-Nov-18 19:46 47.849106 -116.161780 40 13010ft 262kts
04-Nov-18 19:47 47.885460 -116.120537 25 12930ft 252kts
04-Nov-18 19:48 47.917263 -116.089217 25 12655ft 257kts
04-Nov-18 19:49 47.970673 -116.036518 25 12697ft 249kts
04-Nov-18 19:50 48.020367 -115.987425 25 12697ft 242kts
04-Nov-18 19:51 48.069118 -115.939156 25 12698ft 240kts
04-Nov-18 19:52 48.118693 -115.889955 25 12703ft 240kts
04-Nov-18 19:53 48.168445 -115.840458 25 12703ft 240kts
04-Nov-18 19:54 48.217674 -115.791365 25 12703ft 240kts
04-Nov-18 19:55 48.268501 -115.740561 25 12703ft 240kts
04-Nov-18 19:56 48.319181 -115.689778 25 12703ft 240kts
04-Nov-18 19:57 48.371197 -115.637547 26 12062ft 253kts
04-Nov-18 19:58 48.423689 -115.584681 26 11239ft 247kts
04-Nov-18 19:59 48.475896 -115.538117 19 10787ft 230kts
04-Nov-18 20:00 48.526007 -115.517122 317 10785ft 195kts
04-Nov-18 20:01 48.509548 -115.570228 199 10566ft 233kts
04-Nov-18 20:02 48.446894 -115.555210 165 8696ft 276kts
04-Nov-18 20:03 48.382639 -115.529244 168 7231ft 232kts
04-Nov-18 20:04 48.339607 -115.511349 164 5444ft 137kts
04-Nov-18 20:05 48.309238 -115.499998 170 3589ft 107kts
04-Nov-18 20:06 48.286369 -115.491836 149 2589ft 62kts
04-Nov-18 20:07 48.283998 -115.488587 228 2600ft 7kts
04-Nov-18 20:08 48.283970 -115.488686 257 2600ft 0kts
04-Nov-18 20:09 48.283970 -115.488686 257 2600ft 0kts
04-Nov-18 20:10 48.283970 -115.488686 257 2600ft 0kts
04-Nov-18 20:11 48.283970 -115.488686 257 2600ft 0kts
04-Nov-18 20:12 48.283970 -115.488686 257 2600ft 0kts
04-Nov-18 20:13 48.283970 -115.488686 257 2600ft 0kts
04-Nov-18 20:14 48.283970 -115.488686 257 2600ft 0kts

Navigation Log

Ident Type
Flight plan parsing failed, navigation log unavailable